This is the latest recevied weather packets stored in our database for station/object ED4YAZ-13. If no packets are shown the sender has not sent any weather packets the latest 10 day(s).
| Time | Temp. | Humidity | Pressure | Rain* | Wind** | Luminosity | Snow |
|---|---|---|---|---|---|---|---|
| 1777638714 | 22.78° C | 48% | 1016.9 hPa | - | - | - | - |
| 1777638114 | 21.67° C | 48% | 1017.5 hPa | - | - | - | - |
| 1777637504 | 23.33° C | 48% | 1016.8 hPa | - | - | - | - |
| 1777636894 | 22.78° C | 46% | 1016.8 hPa | - | - | - | - |
| 1777636294 | 22.78° C | 49% | 1017 hPa | - | - | - | - |
| 1777635680 | 22.78° C | 49% | 1017 hPa | - | - | - | - |
| 1777635669 | 21.11° C | 52% | 1017.5 hPa | - | - | - | - |
| 1777635072 | 21.11° C | 52% | 1017.5 hPa | - | - | - | - |
| 1777634463 | 22.22° C | 53% | 1017.2 hPa | - | - | - | - |
| 1777633863 | 20° C | 58% | 1018.2 hPa | - | - | - | - |
| 1777633263 | 20° C | 55% | 1018.1 hPa | - | - | - | - |
| 1777632663 | 21.11° C | 54% | 1017.7 hPa | - | - | - | - |
| 1777632066 | 20.56° C | 55% | 1017.9 hPa | - | - | - | - |
| 1777631466 | 20° C | 55% | 1018.1 hPa | - | - | - | - |
| 1777631461 | 20° C | 55% | 1018.1 hPa | - | - | - | - |
| 1777630868 | 20° C | 57% | 1018.3 hPa | - | - | - | - |
| 1777630861 | 20° C | 57% | 1018.3 hPa | - | - | - | - |
| 1777630258 | 19.44° C | 60% | 1018.5 hPa | - | - | - | - |
| 1777629663 | 19.44° C | 61% | 1018.8 hPa | - | - | - | - |
| 1777629658 | 19.44° C | 61% | 1018.8 hPa | - | - | - | - |
| 1777629066 | 18.89° C | 60% | 1018.8 hPa | - | - | - | - |
| 1777628458 | 19.44° C | 61% | 1018.7 hPa | - | - | - | - |
| 1777628453 | 19.44° C | 61% | 1018.7 hPa | - | - | - | - |
| 1777627853 | 18.33° C | 63% | 1019 hPa | - | - | - | - |
| 1777627253 | 18.33° C | 64% | 1019.1 hPa | - | - | - | - |
* Rain since midnight (hover to see other rain measurements)
** Current wind speed in m/s (hover to see current wind gust speed)